• Join FlightAware (Why Join?)
  • Login
  • US Flag 
02:57AM EDT


 

Airport Tracker/Info


-or-


 

Live Flight TrackerFlight Track Log ✈ FRG1537 ✈ 14-May-2013 ✈ KMSN - KMKE

Flight Track Log - Related Links

Times and Time Zones

All times are in EDT time to prevent confusion due to time zone crossing. See the FRG1537 flight status page for this flight to view local times or setup timezone preferences in your user account.

Time Position Orientation Groundspeed Altitude Reporting Facility
EDT Latitude Longitude Course Direction KTS MPH feet Rate Location/Type
09:41PM 43.1331 -89.2156 90° East 154 177 4,800  Level Chicago Center
09:42PM 43.1311 -89.1458 92° East 169 194 5,900 1,020 Climbing Chicago Center
09:43PM 43.1411 -89.0658 80° East 205 236 7,000 480 Climbing Chicago Center
09:44PM 43.1539 -88.9767 79° East 231 266 6,900  Descending Chicago Center
09:45PM 43.1168 -88.8442 90° East  Level FlightAware Approximate
09:45PM 43.1658 -88.8786 80° East 256 295 7,000  Level Chicago Center
09:46PM 43.1169 -88.7624 90° East  Level FlightAware Approximate
09:46PM 43.1894 -88.7661 74° East 261 300 7,000  Level Chicago Center
09:47PM 43.1922 -88.6642 88° East 269 310 7,100  Climbing Chicago Center
09:48PM 43.1967 -88.5622 87° East 269 310 7,100  Level Chicago Center
09:49PM 43.1892 -88.4619 96° East 268 308 7,100 -60 Level Chicago Center
09:50PM 43.1792 -88.3653 98° East 260 299 7,000 -360 Descending Chicago Center
09:51PM 43.1658 -88.2808 102° East 233 268 6,400 -1,020 Descending Chicago Center
09:52PM 43.1339 -88.1842 114° Southeast 238 274 5,000 -1,020 Descending Chicago Center
09:53PM 43.0964 -88.1094 124° Southeast 239 275 4,400 -720 Descending Chicago Center
09:53PM 43.0833 -88.0833 124° Southeast 216 249 4,000 -480 Descending KMKE
09:54PM 43.0333 -88.0167 136° Southeast 223 257 3,800 -660 Descending KMKE
09:55PM 43.0000 -87.9500 124° Southeast 239 275 2,700 -660 Descending KMKE
09:56PM 42.9833 -87.8667 105° East 188 216 2,500 -120 Descending KMKE
09:57PM 42.9925 -87.8353 68° East 185 213 2,500 -420 Level Chicago Center
09:58PM 42.9625 -87.8350 180° South 145 167 1,800 -840 Descending Chicago Center
09:59PM 42.9475 -87.8803 246° West 137 158 900 -900 Descending Chicago Center
10:01PM 42.9333 -87.8833 124° Southeast  Level FlightAware Approximate